Time;durP1;ratioP1;P1;durP2;ratioP2;P2;SDS_P1;SDS_P2;PMS_P1;PMS_P2;Temp;Humidity;BMP_temperature;BMP_pressure;BME280_temperature;BME280_humidity;BME280_pressure;Samples;Min_cycle;Max_cycle;Signal;HPM_P1;HPM_P2
2022/10/10 00:01:36;;;;;;;323.93;154.63;;;;;;;;;;4984419;28;20209;-55
2022/10/10 00:04:03;;;;;;;319.17;151.47;;;;;;;;;;4974058;28;20217;-55
2022/10/10 00:06:29;;;;;;;322.87;151.53;;;;;;;;;;4976632;28;20215;-55
2022/10/10 00:08:55;;;;;;;321.07;151.77;;;;;;;;;;4978539;28;20239;-55
2022/10/10 00:11:21;;;;;;;316.43;148.80;;;;;;;;;;4977994;28;20314;-55
2022/10/10 00:13:48;;;;;;;291.53;136.17;;;;;;;;;;4984738;28;20220;-55
2022/10/10 00:16:14;;;;;;;362.27;177.07;;;;;;;;;;4968767;28;20221;-55
2022/10/10 00:18:40;;;;;;;332.13;157.20;;;;;;;;;;4980447;28;20209;-55
2022/10/10 00:21:07;;;;;;;327.20;155.37;;;;;;;;;;4975684;28;20192;-55
2022/10/10 00:23:33;;;;;;;327.53;153.83;;;;;;;;;;4969818;28;20370;-55
2022/10/10 00:25:59;;;;;;;306.30;142.17;;;;;;;;;;4976028;28;20526;-55
2022/10/10 00:28:25;;;;;;;353.00;169.73;;;;;;;;;;4980917;28;20221;-55
2022/10/10 00:30:51;;;;;;;323.63;155.97;;;;;;;;;;4980456;28;20246;-55
2022/10/10 00:33:17;;;;;;;300.47;140.63;;;;;;;;;;4975042;28;20193;-55
2022/10/10 00:35:43;;;;;;;346.40;168.53;;;;;;;;;;4973072;28;20221;-55
2022/10/10 00:38:09;;;;;;;314.57;151.00;;;;;;;;;;4972301;28;20318;-55
2022/10/10 00:40:35;;;;;;;331.67;158.60;;;;;;;;;;4966858;28;20273;-57
2022/10/10 00:43:01;;;;;;;305.37;143.90;;;;;;;;;;4976997;28;20220;-55
2022/10/10 00:45:40;;;;;;;339.23;166.43;;;;;;;;;;4977774;28;20221;-55
2022/10/10 00:48:14;;;;;;;301.40;140.90;;;;;;;;;;4982541;28;22008;-55
2022/10/10 00:50:46;;;;;;;294.07;138.77;;;;;;;;;;4971919;28;20212;-55
2022/10/10 00:53:13;;;;;;;320.90;151.83;;;;;;;;;;4970317;28;20252;-55
2022/10/10 00:55:39;;;;;;;346.67;166.30;;;;;;;;;;4973503;28;20732;-55
2022/10/10 00:58:06;;;;;;;304.30;145.30;;;;;;;;;;4972622;28;20229;-55
2022/10/10 01:00:32;;;;;;;386.93;190.43;;;;;;;;;;4972061;28;20767;-55
2022/10/10 01:02:58;;;;;;;337.63;161.23;;;;;;;;;;4978320;28;20223;-55
2022/10/10 01:05:25;;;;;;;301.00;141.57;;;;;;;;;;4973200;28;20252;-55
2022/10/10 01:07:51;;;;;;;297.60;137.57;;;;;;;;;;4978446;28;20693;-55
2022/10/10 01:10:19;;;;;;;341.77;162.73;;;;;;;;;;4973212;28;20567;-55
2022/10/10 01:12:47;;;;;;;301.60;141.70;;;;;;;;;;4971093;28;20197;-55
2022/10/10 01:15:16;;;;;;;354.57;167.90;;;;;;;;;;4979321;28;20216;-55
2022/10/10 01:18:01;;;;;;;334.00;157.00;;;;;;;;;;4981741;28;21561;-55
2022/10/10 01:20:30;;;;;;;319.20;149.93;;;;;;;;;;4983153;28;20213;-55
2022/10/10 01:23:14;;;;;;;335.43;160.20;;;;;;;;;;4985769;28;20299;-55
2022/10/10 01:25:52;;;;;;;325.80;152.13;;;;;;;;;;4982214;28;20225;-55
2022/10/10 01:28:18;;;;;;;324.87;151.40;;;;;;;;;;4974109;28;20399;-55
2022/10/10 01:30:45;;;;;;;336.10;158.60;;;;;;;;;;4976509;28;20224;-55
2022/10/10 01:33:14;;;;;;;338.67;160.50;;;;;;;;;;4976539;28;20185;-55
2022/10/10 01:35:52;;;;;;;381.10;186.20;;;;;;;;;;4981525;28;21165;-55
2022/10/10 01:38:34;;;;;;;315.97;148.80;;;;;;;;;;4978996;28;20236;-55
2022/10/10 01:41:03;;;;;;;312.33;144.40;;;;;;;;;;4977097;28;20213;-55
2022/10/10 01:43:29;;;;;;;323.93;152.47;;;;;;;;;;4976680;28;20236;-55
2022/10/10 01:45:55;;;;;;;312.33;145.70;;;;;;;;;;4981217;28;20205;-55
2022/10/10 01:48:28;;;;;;;316.53;146.60;;;;;;;;;;4974917;28;20444;-55
2022/10/10 01:51:09;;;;;;;381.53;185.37;;;;;;;;;;4974284;28;20225;-55
2022/10/10 01:53:42;;;;;;;364.60;176.50;;;;;;;;;;4974141;28;20241;-55
2022/10/10 01:56:27;;;;;;;304.13;138.97;;;;;;;;;;4981226;28;20222;-55
2022/10/10 01:59:05;;;;;;;335.17;155.77;;;;;;;;;;4979058;28;20221;-55
2022/10/10 02:01:36;;;;;;;311.30;145.60;;;;;;;;;;4981635;28;20969;-55
2022/10/10 02:04:13;;;;;;;361.00;167.57;;;;;;;;;;4974731;28;20217;-55
2022/10/10 02:06:46;;;;;;;347.03;158.67;;;;;;;;;;4975627;28;20240;-55
2022/10/10 02:09:18;;;;;;;355.23;166.10;;;;;;;;;;4983478;28;20181;-55
2022/10/10 02:11:44;;;;;;;335.40;155.13;;;;;;;;;;4976709;28;20217;-55
2022/10/10 02:14:16;;;;;;;309.33;139.83;;;;;;;;;;4973608;28;20226;-55
2022/10/10 02:16:44;;;;;;;421.83;210.90;;;;;;;;;;4981084;28;20248;-55
2022/10/10 02:19:12;;;;;;;347.50;165.50;;;;;;;;;;4982862;28;20240;-55
2022/10/10 02:21:40;;;;;;;324.03;148.93;;;;;;;;;;4983445;28;20248;-55
2022/10/10 02:24:07;;;;;;;349.63;166.53;;;;;;;;;;4976295;28;20189;-55
2022/10/10 02:26:35;;;;;;;340.30;160.73;;;;;;;;;;4972597;28;20224;-55
2022/10/10 02:29:10;;;;;;;313.67;144.70;;;;;;;;;;4977162;28;20604;-55
2022/10/10 02:31:47;;;;;;;291.13;134.50;;;;;;;;;;4978584;28;20208;-55
2022/10/10 02:34:16;;;;;;;300.20;139.17;;;;;;;;;;4985470;28;20521;-56
2022/10/10 02:36:43;;;;;;;321.93;152.00;;;;;;;;;;4982235;28;20198;-56
2022/10/10 02:39:09;;;;;;;305.37;141.20;;;;;;;;;;4989516;28;20181;-56
2022/10/10 02:41:35;;;;;;;256.90;118.33;;;;;;;;;;4984428;28;20232;-55
2022/10/10 02:44:02;;;;;;;293.77;135.00;;;;;;;;;;4982657;28;20353;-56
2022/10/10 02:46:28;;;;;;;309.03;146.10;;;;;;;;;;4978426;28;20693;-55
2022/10/10 02:48:53;;;;;;;360.37;174.57;;;;;;;;;;4976661;28;20244;-56
2022/10/10 02:51:19;;;;;;;314.53;147.73;;;;;;;;;;4980255;28;20194;-56
2022/10/10 02:53:46;;;;;;;313.73;150.87;;;;;;;;;;4973642;28;20227;-55
2022/10/10 02:56:12;;;;;;;311.87;145.47;;;;;;;;;;4970387;28;20715;-55
2022/10/10 02:58:38;;;;;;;345.90;164.70;;;;;;;;;;4977244;28;20221;-55
2022/10/10 03:01:04;;;;;;;294.30;134.97;;;;;;;;;;4980113;28;20212;-56
2022/10/10 03:03:30;;;;;;;334.07;158.30;;;;;;;;;;4978898;28;20267;-55
2022/10/10 03:05:55;;;;;;;350.57;166.87;;;;;;;;;;4974255;28;20229;-55
2022/10/10 03:08:21;;;;;;;332.50;155.50;;;;;;;;;;4980002;28;20378;-55
2022/10/10 03:10:57;;;;;;;308.57;144.83;;;;;;;;;;4976112;28;20228;-55
2022/10/10 03:13:23;;;;;;;355.83;169.10;;;;;;;;;;4973496;28;20223;-55
2022/10/10 03:15:49;;;;;;;324.57;152.20;;;;;;;;;;4978652;28;20628;-58
2022/10/10 03:18:15;;;;;;;316.63;147.07;;;;;;;;;;4976176;28;20216;-55
2022/10/10 03:20:41;;;;;;;299.40;136.90;;;;;;;;;;4989586;28;20225;-55
2022/10/10 03:23:07;;;;;;;295.57;135.13;;;;;;;;;;4986008;28;20304;-55
2022/10/10 03:25:33;;;;;;;323.00;145.13;;;;;;;;;;4983925;28;20552;-55
2022/10/10 03:27:59;;;;;;;331.30;151.10;;;;;;;;;;4977972;28;20257;-55
2022/10/10 03:30:25;;;;;;;316.17;143.63;;;;;;;;;;4983215;28;20185;-55
2022/10/10 03:32:51;;;;;;;347.13;160.77;;;;;;;;;;4969183;28;20610;-56
2022/10/10 03:35:17;;;;;;;343.87;160.07;;;;;;;;;;4968531;28;20232;-56
2022/10/10 03:37:43;;;;;;;319.13;148.13;;;;;;;;;;4980367;28;20613;-55
2022/10/10 03:40:09;;;;;;;288.47;129.83;;;;;;;;;;4980376;28;20306;-55
2022/10/10 03:42:35;;;;;;;294.47;132.90;;;;;;;;;;4971740;28;20672;-55
2022/10/10 03:45:01;;;;;;;352.63;161.83;;;;;;;;;;4976566;28;20228;-55
2022/10/10 03:47:27;;;;;;;362.77;171.93;;;;;;;;;;4969856;28;20216;-56
2022/10/10 03:49:53;;;;;;;293.70;134.67;;;;;;;;;;4980199;28;20228;-55
2022/10/10 03:52:20;;;;;;;315.17;145.37;;;;;;;;;;4973645;28;20717;-55
2022/10/10 03:54:46;;;;;;;310.60;143.80;;;;;;;;;;4987209;28;20248;-55
2022/10/10 03:57:12;;;;;;;354.37;165.10;;;;;;;;;;4972717;28;20201;-55
2022/10/10 03:59:38;;;;;;;362.07;170.33;;;;;;;;;;4974876;28;20217;-55
2022/10/10 04:02:04;;;;;;;340.53;161.47;;;;;;;;;;4976106;28;20205;-55
2022/10/10 04:04:30;;;;;;;292.03;132.10;;;;;;;;;;4981374;28;20259;-55
2022/10/10 04:06:56;;;;;;;324.97;151.90;;;;;;;;;;4980877;28;20181;-55
2022/10/10 04:09:23;;;;;;;357.47;171.00;;;;;;;;;;4972389;28;20207;-55
2022/10/10 04:11:49;;;;;;;346.57;163.57;;;;;;;;;;4975680;28;20578;-55
2022/10/10 04:14:14;;;;;;;308.37;141.00;;;;;;;;;;4973533;28;20592;-55
2022/10/10 04:16:40;;;;;;;338.93;158.00;;;;;;;;;;4978136;28;20221;-55
2022/10/10 04:19:06;;;;;;;298.57;136.30;;;;;;;;;;4987622;28;20248;-55
2022/10/10 04:21:32;;;;;;;317.97;145.87;;;;;;;;;;4984977;28;20200;-56
2022/10/10 04:23:58;;;;;;;301.63;136.40;;;;;;;;;;4991376;28;20287;-55
2022/10/10 04:26:24;;;;;;;303.20;140.67;;;;;;;;;;4987311;28;20292;-55
2022/10/10 04:28:50;;;;;;;298.93;133.60;;;;;;;;;;4981376;28;20228;-56
2022/10/10 04:31:16;;;;;;;350.10;165.63;;;;;;;;;;4977787;28;20578;-55
2022/10/10 04:33:42;;;;;;;292.40;135.03;;;;;;;;;;4988504;28;20250;-55
2022/10/10 04:36:08;;;;;;;293.10;132.97;;;;;;;;;;4981202;28;20448;-55
2022/10/10 04:38:34;;;;;;;298.23;136.43;;;;;;;;;;4981730;28;20729;-55
2022/10/10 04:41:00;;;;;;;344.90;161.07;;;;;;;;;;4980301;28;20213;-55
2022/10/10 04:43:26;;;;;;;317.90;146.93;;;;;;;;;;4977505;28;20213;-55
2022/10/10 04:45:52;;;;;;;343.90;163.17;;;;;;;;;;4977136;28;20212;-56
2022/10/10 04:48:18;;;;;;;298.90;135.93;;;;;;;;;;4974854;28;20189;-55
2022/10/10 04:50:44;;;;;;;307.13;143.23;;;;;;;;;;4985379;28;21067;-55
2022/10/10 04:53:10;;;;;;;338.23;155.57;;;;;;;;;;4982035;28;20788;-55
2022/10/10 04:55:36;;;;;;;334.13;154.87;;;;;;;;;;4979421;28;20209;-55
2022/10/10 04:58:02;;;;;;;323.90;147.43;;;;;;;;;;4989575;28;20287;-55
2022/10/10 05:00:28;;;;;;;295.57;133.80;;;;;;;;;;4982280;28;20193;-55
2022/10/10 05:02:54;;;;;;;317.73;145.47;;;;;;;;;;4978154;28;20602;-56
2022/10/10 05:05:20;;;;;;;291.40;132.17;;;;;;;;;;4985338;28;20257;-55
2022/10/10 05:07:46;;;;;;;339.33;159.83;;;;;;;;;;4985193;28;20651;-55
2022/10/10 05:10:11;;;;;;;317.87;146.57;;;;;;;;;;4978267;28;20764;-55
2022/10/10 05:12:37;;;;;;;333.67;155.37;;;;;;;;;;4973804;28;20182;-55
2022/10/10 05:15:03;;;;;;;333.10;154.27;;;;;;;;;;4972503;28;20360;-56
2022/10/10 05:17:29;;;;;;;356.33;167.90;;;;;;;;;;4972264;28;20272;-56
2022/10/10 05:19:55;;;;;;;301.23;138.67;;;;;;;;;;4977864;28;20622;-56
2022/10/10 05:22:21;;;;;;;311.67;143.23;;;;;;;;;;4983579;28;20232;-56
2022/10/10 05:24:47;;;;;;;291.50;133.07;;;;;;;;;;4986785;28;20590;-56
2022/10/10 05:27:13;;;;;;;336.53;157.80;;;;;;;;;;4982862;28;20673;-56
2022/10/10 05:29:39;;;;;;;427.50;205.67;;;;;;;;;;4970613;28;20964;-56
2022/10/10 05:32:05;;;;;;;345.10;161.57;;;;;;;;;;4973011;28;20217;-56
2022/10/10 05:34:31;;;;;;;351.27;163.20;;;;;;;;;;4974926;28;20224;-56
2022/10/10 05:36:57;;;;;;;342.03;156.03;;;;;;;;;;4982629;28;20262;-56
2022/10/10 05:39:23;;;;;;;287.20;129.27;;;;;;;;;;4979725;28;20177;-56
2022/10/10 05:41:49;;;;;;;309.23;140.97;;;;;;;;;;4975799;28;20716;-56
2022/10/10 05:44:15;;;;;;;345.40;162.50;;;;;;;;;;4976166;28;20206;-55
2022/10/10 05:46:41;;;;;;;314.50;144.60;;;;;;;;;;4974239;28;20268;-56
2022/10/10 05:49:07;;;;;;;371.57;175.57;;;;;;;;;;4968410;28;20790;-56
2022/10/10 05:51:33;;;;;;;320.63;146.67;;;;;;;;;;4974055;28;20805;-55
2022/10/10 05:53:59;;;;;;;352.43;164.57;;;;;;;;;;4978340;28;20220;-56
2022/10/10 05:56:25;;;;;;;278.73;126.23;;;;;;;;;;4976531;28;20229;-55
2022/10/10 05:58:51;;;;;;;349.70;163.83;;;;;;;;;;4984049;28;20263;-56
2022/10/10 06:01:17;;;;;;;296.27;133.83;;;;;;;;;;4982192;28;20217;-56
2022/10/10 06:03:43;;;;;;;343.97;160.90;;;;;;;;;;4977203;28;21130;-56
2022/10/10 06:06:09;;;;;;;279.97;125.87;;;;;;;;;;4979345;28;20373;-55
2022/10/10 06:08:35;;;;;;;334.33;153.40;;;;;;;;;;4972823;28;20664;-56
2022/10/10 06:11:03;;;;;;;555.35;290.85;;;;;;;;;;4953330;28;20433;-55
2022/10/10 06:13:29;;;;;;;307.80;140.43;;;;;;;;;;4969225;28;20217;-55
2022/10/10 06:15:54;;;;;;;376.87;164.70;;;;;;;;;;4971815;28;20204;-55
2022/10/10 06:18:20;;;;;;;295.47;132.60;;;;;;;;;;4991296;28;20688;-55
2022/10/10 06:20:46;;;;;;;387.03;171.63;;;;;;;;;;4981655;28;20213;-55
2022/10/10 06:23:12;;;;;;;320.70;140.97;;;;;;;;;;4982357;28;20216;-55
2022/10/10 06:25:38;;;;;;;406.37;182.93;;;;;;;;;;4972605;28;20323;-55
2022/10/10 06:28:04;;;;;;;354.37;153.70;;;;;;;;;;4977954;28;20214;-55
2022/10/10 06:30:31;;;;;;;318.50;140.73;;;;;;;;;;4981149;28;20244;-56
2022/10/10 06:32:57;;;;;;;334.67;147.80;;;;;;;;;;4984325;28;20352;-55
2022/10/10 06:35:23;;;;;;;322.67;146.30;;;;;;;;;;4988174;28;20233;-55
2022/10/10 06:37:49;;;;;;;340.33;149.97;;;;;;;;;;4976535;28;20752;-55
2022/10/10 06:40:15;;;;;;;306.50;140.03;;;;;;;;;;4975469;28;20384;-55
2022/10/10 06:42:41;;;;;;;319.17;145.43;;;;;;;;;;4985944;28;20567;-55
2022/10/10 06:45:07;;;;;;;340.33;158.20;;;;;;;;;;4980916;28;20400;-55
2022/10/10 06:47:33;;;;;;;316.73;147.30;;;;;;;;;;4979368;28;20222;-53
2022/10/10 06:49:59;;;;;;;391.33;186.77;;;;;;;;;;4971086;28;20859;-53
2022/10/10 06:52:25;;;;;;;313.07;146.47;;;;;;;;;;4978856;28;20220;-55
2022/10/10 06:54:51;;;;;;;328.50;151.87;;;;;;;;;;4979265;28;20202;-53
2022/10/10 06:57:17;;;;;;;358.67;170.73;;;;;;;;;;4987966;28;20251;-54
2022/10/10 06:59:43;;;;;;;322.17;148.77;;;;;;;;;;4988414;28;20213;-54
2022/10/10 07:02:11;;;;;;;328.23;150.83;;;;;;;;;;4983690;28;20213;-54
2022/10/10 07:04:37;;;;;;;324.10;148.93;;;;;;;;;;4976854;28;22763;-54
2022/10/10 07:07:03;;;;;;;323.00;148.53;;;;;;;;;;4976739;28;20213;-54
2022/10/10 07:09:29;;;;;;;341.53;158.50;;;;;;;;;;4985774;28;20662;-54
2022/10/10 07:11:55;;;;;;;347.80;160.93;;;;;;;;;;4991357;28;20217;-54
2022/10/10 07:14:21;;;;;;;359.57;171.97;;;;;;;;;;4979926;28;20217;-54
2022/10/10 07:16:47;;;;;;;306.20;136.30;;;;;;;;;;4986974;28;20221;-54
2022/10/10 07:19:12;;;;;;;330.60;150.83;;;;;;;;;;4991654;28;20645;-55
2022/10/10 07:21:38;;;;;;;373.53;181.00;;;;;;;;;;4968543;28;20186;-55
2022/10/10 07:24:04;;;;;;;329.10;152.93;;;;;;;;;;4986037;28;20185;-55
2022/10/10 07:26:35;;;;;;;305.60;140.87;;;;;;;;;;4992351;28;20212;-56
2022/10/10 07:29:01;;;;;;;327.40;147.27;;;;;;;;;;4979959;28;20229;-55
2022/10/10 07:31:27;;;;;;;338.73;157.57;;;;;;;;;;4982065;28;20238;-56
2022/10/10 07:33:53;;;;;;;348.90;162.70;;;;;;;;;;4977453;28;20190;-56
2022/10/10 07:36:19;;;;;;;327.33;153.57;;;;;;;;;;4976344;28;20286;-55
2022/10/10 07:38:49;;;;;;;301.60;136.67;;;;;;;;;;4985002;28;20774;-55
2022/10/10 07:41:15;;;;;;;368.53;172.37;;;;;;;;;;4982493;28;22211;-54
2022/10/10 07:43:41;;;;;;;296.90;133.47;;;;;;;;;;4977686;28;20228;-55
2022/10/10 07:46:13;;;;;;;322.13;149.37;;;;;;;;;;4982185;28;20708;-55
2022/10/10 07:48:39;;;;;;;352.90;163.57;;;;;;;;;;4978739;28;20228;-56
2022/10/10 07:51:06;;;;;;;341.97;159.87;;;;;;;;;;4977498;28;20722;-55
2022/10/10 07:53:32;;;;;;;368.57;176.17;;;;;;;;;;4980149;28;20724;-55
2022/10/10 07:55:57;;;;;;;355.40;166.50;;;;;;;;;;4978894;28;20236;-55
2022/10/10 07:58:23;;;;;;;328.90;149.87;;;;;;;;;;4987306;28;20233;-55
2022/10/10 08:00:49;;;;;;;323.80;148.40;;;;;;;;;;4987658;28;20613;-55
2022/10/10 08:03:15;;;;;;;314.40;139.90;;;;;;;;;;4984323;28;20191;-55
2022/10/10 08:05:42;;;;;;;339.73;157.37;;;;;;;;;;4980706;28;20243;-55
2022/10/10 08:08:09;;;;;;;316.70;145.43;;;;;;;;;;4984201;28;20248;-55
2022/10/10 08:10:35;;;;;;;338.17;157.73;;;;;;;;;;4980027;28;20483;-55
2022/10/10 08:13:01;;;;;;;317.33;143.03;;;;;;;;;;4983203;28;20454;-55
2022/10/10 08:15:27;;;;;;;347.60;160.90;;;;;;;;;;4978954;28;20772;-55
2022/10/10 08:17:53;;;;;;;362.80;172.20;;;;;;;;;;4974702;28;20235;-55
2022/10/10 08:20:19;;;;;;;306.83;140.30;;;;;;;;;;4978610;28;20232;-55
2022/10/10 08:22:45;;;;;;;355.90;160.30;;;;;;;;;;4984717;28;20220;-55
2022/10/10 08:25:10;;;;;;;321.50;148.87;;;;;;;;;;4983526;28;22381;-55
2022/10/10 08:27:36;;;;;;;315.07;143.93;;;;;;;;;;4986663;28;20185;-56
2022/10/10 08:30:03;;;;;;;337.23;153.73;;;;;;;;;;4978662;28;20223;-55
2022/10/10 08:32:29;;;;;;;329.00;153.57;;;;;;;;;;4973611;28;20225;-55
2022/10/10 08:34:55;;;;;;;323.70;149.70;;;;;;;;;;4984806;28;20259;-55
2022/10/10 08:37:20;;;;;;;435.13;215.07;;;;;;;;;;4972070;28;20231;-55
2022/10/10 08:39:46;;;;;;;367.10;177.33;;;;;;;;;;4977507;28;20817;-55
2022/10/10 08:42:15;;;;;;;357.30;161.27;;;;;;;;;;4964863;28;20208;-55
2022/10/10 08:44:56;;;;;;;417.47;192.77;;;;;;;;;;4956398;28;20221;-55
2022/10/10 08:47:25;;;;;;;334.47;155.67;;;;;;;;;;4980066;28;20306;-55
2022/10/10 08:49:55;;;;;;;326.57;153.07;;;;;;;;;;4986461;28;20248;-55
2022/10/10 08:52:31;;;;;;;330.97;155.80;;;;;;;;;;4985476;28;20247;-55
2022/10/10 08:55:00;;;;;;;304.23;139.70;;;;;;;;;;4988178;28;20278;-55
2022/10/10 08:57:28;;;;;;;334.97;158.50;;;;;;;;;;4985685;28;20434;-55
2022/10/10 08:59:57;;;;;;;324.90;151.23;;;;;;;;;;4994267;28;20213;-55
2022/10/10 09:02:38;;;;;;;318.63;146.93;;;;;;;;;;4986494;28;20563;-55
2022/10/10 09:05:05;;;;;;;349.67;165.80;;;;;;;;;;4987299;28;20231;-55
2022/10/10 09:07:49;;;;;;;334.37;156.33;;;;;;;;;;4987605;28;20674;-55
2022/10/10 09:10:25;;;;;;;322.87;150.53;;;;;;;;;;4988391;28;20595;-55
2022/10/10 09:12:54;;;;;;;348.67;169.10;;;;;;;;;;4982959;28;20853;-56
2022/10/10 09:15:19;;;;;;;334.90;155.93;;;;;;;;;;4986116;28;20220;-55
2022/10/10 09:17:50;;;;;;;333.03;155.50;;;;;;;;;;4986583;28;20229;-56
2022/10/10 09:20:22;;;;;;;326.37;152.07;;;;;;;;;;4987071;28;20317;-55
2022/10/10 09:22:53;;;;;;;357.33;172.53;;;;;;;;;;4985853;28;20213;-55
2022/10/10 09:25:24;;;;;;;326.33;152.80;;;;;;;;;;4990139;28;20227;-55
2022/10/10 09:28:13;;;;;;;337.77;162.13;;;;;;;;;;4984282;28;20193;-55
2022/10/10 09:30:41;;;;;;;516.53;279.43;;;;;;;;;;4973038;28;20197;-55
2022/10/10 09:33:13;;;;;;;450.90;231.03;;;;;;;;;;4966909;28;20285;-55
2022/10/10 09:35:41;;;;;;;448.37;229.07;;;;;;;;;;4966151;28;20224;-55
2022/10/10 09:38:29;;;;;;;354.10;170.33;;;;;;;;;;4968200;28;20710;-55
2022/10/10 09:41:07;;;;;;;417.10;212.53;;;;;;;;;;4974947;28;20250;-56
2022/10/10 09:43:33;;;;;;;314.03;148.70;;;;;;;;;;4979937;28;20204;-55
2022/10/10 09:45:59;;;;;;;355.07;172.83;;;;;;;;;;4980307;28;20225;-55
2022/10/10 09:48:28;;;;;;;365.97;178.30;;;;;;;;;;5016840;28;20763;-55
2022/10/10 09:50:54;;;;;;;406.10;201.73;;;;;;;;;;4974016;28;20404;-56
2022/10/10 09:53:20;;;;;;;357.70;177.77;;;;;;;;;;4976259;28;20336;-55
2022/10/10 09:55:46;;;;;;;359.47;177.23;;;;;;;;;;5008370;28;20307;-55
2022/10/10 09:58:12;;;;;;;376.60;189.37;;;;;;;;;;4977924;28;20229;-55
2022/10/10 10:00:38;;;;;;;354.80;171.07;;;;;;;;;;4977217;28;20231;-55
2022/10/10 10:03:18;;;;;;;344.70;166.57;;;;;;;;;;4979647;28;20183;-55
2022/10/10 10:05:46;;;;;;;354.33;176.57;;;;;;;;;;4973263;28;20228;-55
2022/10/10 10:08:28;;;;;;;336.23;168.00;;;;;;;;;;4992243;28;20417;-55
2022/10/10 10:10:56;;;;;;;373.50;187.43;;;;;;;;;;4978897;28;20688;-55
2022/10/10 10:13:24;;;;;;;331.53;165.23;;;;;;;;;;4968318;28;20307;-55
2022/10/10 10:15:54;;;;;;;325.97;162.70;;;;;;;;;;4963777;28;20213;-55
2022/10/10 10:18:23;;;;;;;327.00;161.77;;;;;;;;;;4983833;28;20991;-56
2022/10/10 10:20:51;;;;;;;341.13;172.07;;;;;;;;;;4977265;28;20256;-53
2022/10/10 10:23:24;;;;;;;314.77;157.83;;;;;;;;;;4977447;28;20866;-53
2022/10/10 10:25:56;;;;;;;406.33;211.07;;;;;;;;;;4985015;28;20217;-57
2022/10/10 10:28:22;;;;;;;359.50;184.23;;;;;;;;;;4980700;28;20260;-57
2022/10/10 10:30:48;;;;;;;347.47;175.13;;;;;;;;;;4976569;28;20728;-57
2022/10/10 10:33:30;;;;;;;333.63;166.90;;;;;;;;;;4988539;28;20215;-57
2022/10/10 10:36:05;;;;;;;355.37;180.67;;;;;;;;;;4982061;28;20252;-57
2022/10/10 10:38:34;;;;;;;327.43;162.17;;;;;;;;;;4988887;28;20225;-57
2022/10/10 10:41:04;;;;;;;363.07;188.93;;;;;;;;;;4983065;28;20422;-57
2022/10/10 10:43:34;;;;;;;355.90;180.67;;;;;;;;;;4975987;28;20217;-56
2022/10/10 10:46:08;;;;;;;372.87;192.63;;;;;;;;;;4975251;28;20232;-57
2022/10/10 10:48:47;;;;;;;351.60;178.93;;;;;;;;;;4964035;28;20790;-57
2022/10/10 10:51:16;;;;;;;359.00;184.53;;;;;;;;;;4968799;28;20215;-57
2022/10/10 10:53:57;;;;;;;368.50;190.17;;;;;;;;;;4950547;28;20222;-57
2022/10/10 10:56:26;;;;;;;388.80;202.63;;;;;;;;;;4942792;28;20218;-57
2022/10/10 10:58:51;;;;;;;358.03;181.57;;;;;;;;;;4952897;28;20225;-57
2022/10/10 11:01:33;;;;;;;426.90;228.37;;;;;;;;;;4943852;28;20225;-57
2022/10/10 11:04:01;;;;;;;383.83;202.03;;;;;;;;;;4943659;28;20855;-57
2022/10/10 11:06:35;;;;;;;340.83;172.67;;;;;;;;;;4943890;28;20752;-57
2022/10/10 11:09:01;;;;;;;309.97;150.03;;;;;;;;;;4957480;28;20217;-57
2022/10/10 11:11:41;;;;;;;351.40;177.47;;;;;;;;;;4960478;28;20276;-57
2022/10/10 11:14:26;;;;;;;386.23;199.67;;;;;;;;;;4949259;28;20217;-57
2022/10/10 11:16:58;;;;;;;371.63;188.10;;;;;;;;;;4946124;28;20277;-57
2022/10/10 11:19:31;;;;;;;337.87;171.00;;;;;;;;;;4950350;28;20599;-57
2022/10/10 11:21:57;;;;;;;341.37;170.37;;;;;;;;;;4955069;28;20620;-57
2022/10/10 11:24:29;;;;;;;334.10;167.53;;;;;;;;;;4950441;28;20181;-57
2022/10/10 11:26:56;;;;;;;320.80;157.87;;;;;;;;;;4955629;28;20222;-57
2022/10/10 11:29:25;;;;;;;348.63;178.93;;;;;;;;;;4952975;28;20225;-57
2022/10/10 11:32:02;;;;;;;338.67;165.13;;;;;;;;;;4960261;28;20222;-57
2022/10/10 11:34:38;;;;;;;311.97;152.97;;;;;;;;;;4963802;28;20241;-57
2022/10/10 11:37:05;;;;;;;319.40;159.23;;;;;;;;;;4969995;28;20217;-57
2022/10/10 11:39:45;;;;;;;327.23;164.07;;;;;;;;;;4974477;28;20177;-57
2022/10/10 11:42:11;;;;;;;324.80;163.73;;;;;;;;;;4976938;28;20674;-57
2022/10/10 11:44:42;;;;;;;345.93;182.77;;;;;;;;;;4964860;28;20275;-57
2022/10/10 11:47:21;;;;;;;350.77;180.87;;;;;;;;;;4964078;28;20217;-57
2022/10/10 11:50:11;;;;;;;299.53;152.90;;;;;;;;;;4968488;28;20210;-57
2022/10/10 11:52:40;;;;;;;340.33;175.13;;;;;;;;;;4965278;28;20327;-57
2022/10/10 11:55:17;;;;;;;345.27;179.57;;;;;;;;;;4954885;28;20325;-57
2022/10/10 11:57:49;;;;;;;331.53;174.43;;;;;;;;;;4967429;28;20468;-57
2022/10/10 12:00:16;;;;;;;326.53;166.10;;;;;;;;;;4962516;28;20189;-57
2022/10/10 12:02:44;;;;;;;317.93;162.57;;;;;;;;;;4962262;28;20336;-57
2022/10/10 12:05:20;;;;;;;345.20;181.20;;;;;;;;;;4958659;28;20261;-57
2022/10/10 12:08:02;;;;;;;445.63;252.70;;;;;;;;;;4959902;28;20225;-57
2022/10/10 12:10:32;;;;;;;436.03;243.37;;;;;;;;;;4953234;28;20599;-57
2022/10/10 12:13:03;;;;;;;397.13;218.50;;;;;;;;;;4944943;28;20249;-57
2022/10/10 12:15:31;;;;;;;362.70;193.57;;;;;;;;;;4953709;28;20663;-57
2022/10/10 12:17:57;;;;;;;346.13;181.73;;;;;;;;;;4956763;28;20275;-57
2022/10/10 12:20:26;;;;;;;362.83;193.67;;;;;;;;;;4955635;28;20325;-57
2022/10/10 12:23:11;;;;;;;376.27;199.90;;;;;;;;;;4956801;28;20308;-57
2022/10/10 12:25:41;;;;;;;353.90;187.63;;;;;;;;;;4958596;28;20221;-57
2022/10/10 12:28:13;;;;;;;330.27;171.00;;;;;;;;;;4975873;28;20217;-57
2022/10/10 12:31:08;;;;;;;342.00;180.10;;;;;;;;;;4959078;28;20667;-57
2022/10/10 12:33:34;;;;;;;331.77;174.50;;;;;;;;;;4957562;28;20189;-57
2022/10/10 12:36:18;;;;;;;360.07;187.73;;;;;;;;;;4980248;28;20213;-57
2022/10/10 12:39:09;;;;;;;328.37;165.50;;;;;;;;;;4978484;28;20290;-57
2022/10/10 12:41:47;;;;;;;372.60;200.90;;;;;;;;;;4970015;28;20587;-54
2022/10/10 12:44:22;;;;;;;359.03;192.50;;;;;;;;;;4964474;28;20352;-54
2022/10/10 12:47:07;;;;;;;350.07;185.33;;;;;;;;;;4982351;28;20779;-54
2022/10/10 12:49:34;;;;;;;344.77;178.50;;;;;;;;;;4972490;28;20240;-54
2022/10/10 12:52:00;;;;;;;419.23;209.27;;;;;;;;;;4964975;28;20229;-54
2022/10/10 12:54:36;;;;;;;410.33;236.67;;;;;;;;;;4970983;28;20200;-54
2022/10/10 12:57:08;;;;;;;384.60;208.90;;;;;;;;;;4975417;28;20300;-57
2022/10/10 12:59:35;;;;;;;399.77;224.73;;;;;;;;;;4972442;28;20842;-57
2022/10/10 13:02:30;;;;;;;430.27;238.47;;;;;;;;;;4957160;28;20220;-57
2022/10/10 13:04:58;;;;;;;375.53;207.07;;;;;;;;;;4974368;28;20233;-57
2022/10/10 13:07:24;;;;;;;343.57;183.80;;;;;;;;;;4972022;28;20248;-57
2022/10/10 13:09:51;;;;;;;321.83;169.70;;;;;;;;;;4980656;28;20193;-57
2022/10/10 13:12:21;;;;;;;331.70;177.77;;;;;;;;;;4976847;28;20320;-57
2022/10/10 13:14:47;;;;;;;368.83;198.93;;;;;;;;;;4975016;28;20212;-57
2022/10/10 13:17:23;;;;;;;385.10;212.47;;;;;;;;;;4971583;28;20221;-57
2022/10/10 13:19:50;;;;;;;327.00;174.47;;;;;;;;;;4988615;28;20217;-57
2022/10/10 13:22:16;;;;;;;337.90;183.63;;;;;;;;;;4982432;28;20251;-57
2022/10/10 13:24:43;;;;;;;333.87;183.70;;;;;;;;;;4995048;28;20256;-57
2022/10/10 13:27:35;;;;;;;358.60;204.93;;;;;;;;;;4989131;28;20200;-57
2022/10/10 13:30:01;;;;;;;322.60;178.20;;;;;;;;;;4981735;28;20224;-57
2022/10/10 13:32:29;;;;;;;352.73;199.63;;;;;;;;;;4972072;28;20321;-57
2022/10/10 13:34:57;;;;;;;330.90;186.53;;;;;;;;;;4983360;28;20280;-57
2022/10/10 13:37:23;;;;;;;339.20;192.90;;;;;;;;;;4982988;28;20645;-57
2022/10/10 13:39:49;;;;;;;361.17;207.77;;;;;;;;;;4977878;28;20197;-57
2022/10/10 13:42:34;;;;;;;366.33;213.87;;;;;;;;;;4991576;28;20173;-57
2022/10/10 13:45:02;;;;;;;324.33;183.03;;;;;;;;;;4989564;28;20252;-57
2022/10/10 13:47:45;;;;;;;367.37;214.70;;;;;;;;;;4978860;28;20220;-57
2022/10/10 13:50:19;;;;;;;335.43;196.53;;;;;;;;;;4984920;28;20221;-57
2022/10/10 13:52:45;;;;;;;349.00;218.40;;;;;;;;;;4993116;28;20220;-58
2022/10/10 13:55:15;;;;;;;338.47;213.53;;;;;;;;;;4995828;28;20718;-57
2022/10/10 13:57:41;;;;;;;347.77;220.27;;;;;;;;;;4994608;28;20300;-58
2022/10/10 14:00:14;;;;;;;365.17;234.77;;;;;;;;;;4993001;28;20177;-58
2022/10/10 14:02:41;;;;;;;392.02;254.90;;;;;;;;;;4991681;28;20262;-58